createdAt,value
2024-02-02T00:00:18.050Z,3.23
2024-02-02T00:03:06.739Z,3.24
2024-02-02T00:05:35.175Z,3.24
2024-02-02T00:08:03.348Z,3.24
2024-02-02T00:10:31.520Z,3.25
2024-02-02T00:12:59.695Z,3.24
2024-02-02T00:15:28.079Z,3.25
2024-02-02T00:17:56.455Z,3.23
2024-02-02T00:20:24.816Z,3.22
2024-02-02T00:22:56.470Z,3.21
2024-02-02T00:25:25.135Z,3.20
2024-02-02T00:27:54.035Z,3.19
2024-02-02T00:30:22.767Z,3.20
2024-02-02T00:32:51.071Z,3.19
2024-02-02T00:35:19.297Z,3.12
2024-02-02T00:37:48.258Z,3.18
2024-02-02T00:40:19.169Z,3.18
2024-02-02T00:42:49.120Z,3.19
2024-02-02T00:45:17.304Z,3.20
2024-02-02T00:47:45.521Z,3.21
2024-02-02T00:50:13.810Z,3.21
2024-02-02T00:52:42.625Z,3.22
2024-02-02T00:55:10.894Z,3.23
2024-02-02T00:57:39.172Z,3.23
2024-02-02T01:00:11.949Z,3.24
2024-02-02T01:02:43.214Z,3.25
2024-02-02T01:05:11.473Z,3.25
2024-02-02T01:07:39.622Z,3.24
2024-02-02T01:10:08.254Z,3.25
2024-02-02T01:12:36.785Z,3.26
2024-02-02T01:15:05.592Z,3.27
2024-02-02T01:17:33.894Z,3.29
2024-02-02T01:20:04.977Z,3.31
2024-02-02T01:22:33.832Z,3.32
2024-02-02T01:25:01.950Z,3.34
2024-02-02T01:27:30.115Z,3.36
2024-02-02T01:29:58.324Z,3.32
2024-02-02T01:32:26.419Z,3.39
2024-02-02T01:34:54.999Z,3.41
2024-02-02T01:37:23.245Z,3.42
2024-02-02T01:39:51.393Z,3.43
2024-02-02T01:42:19.638Z,3.45
2024-02-02T01:44:47.800Z,3.46
2024-02-02T01:47:16.113Z,3.45
2024-02-02T01:49:44.474Z,3.44
2024-02-02T01:52:13.228Z,3.42
2024-02-02T01:54:42.505Z,3.42
2024-02-02T01:57:10.756Z,3.41
2024-02-02T01:59:38.974Z,3.40
2024-02-02T02:02:07.984Z,3.41
2024-02-02T02:04:36.510Z,3.41
2024-02-02T02:07:04.997Z,3.41
2024-02-02T02:09:34.980Z,3.42
2024-02-02T02:12:03.311Z,3.42
2024-02-02T02:14:31.679Z,3.41
2024-02-02T02:16:59.789Z,3.39
2024-02-02T02:19:28.036Z,3.38
2024-02-02T02:21:56.332Z,3.36
2024-02-02T02:24:24.666Z,3.34
2024-02-02T02:26:53.070Z,3.33
2024-02-02T02:29:21.337Z,3.32
2024-02-02T02:31:56.269Z,3.32
2024-02-02T02:34:28.093Z,3.33
2024-02-02T02:36:56.752Z,3.27
2024-02-02T02:39:24.957Z,3.33
2024-02-02T02:41:53.212Z,3.32
2024-02-02T02:44:22.065Z,3.32
2024-02-02T02:46:53.253Z,3.26
2024-02-02T02:49:21.751Z,3.31
2024-02-02T02:51:50.176Z,3.30
2024-02-02T02:54:18.360Z,3.30
2024-02-02T02:56:46.735Z,3.30
2024-02-02T02:59:17.888Z,3.29
2024-02-02T03:01:46.091Z,3.28
2024-02-02T03:04:14.647Z,3.29
2024-02-02T03:06:42.982Z,3.30
2024-02-02T03:09:13.019Z,3.31
2024-02-02T03:11:41.420Z,3.31
2024-02-02T03:14:09.490Z,3.32
2024-02-02T03:16:37.703Z,3.33
2024-02-02T03:19:06.796Z,3.32
2024-02-02T03:21:36.381Z,3.28
2024-02-02T03:24:05.761Z,3.32
2024-02-02T03:26:33.873Z,3.30
2024-02-02T03:29:02.202Z,3.29
2024-02-02T03:31:31.569Z,3.28
2024-02-02T03:33:59.896Z,3.28
2024-02-02T03:36:28.200Z,3.28
2024-02-02T03:38:56.359Z,3.27
2024-02-02T03:41:24.663Z,3.25
2024-02-02T03:43:55.215Z,3.24
2024-02-02T03:46:23.627Z,3.23
2024-02-02T03:48:53.248Z,3.22
2024-02-02T03:51:21.440Z,3.20
2024-02-02T03:53:49.637Z,3.13
2024-02-02T03:56:17.819Z,3.16
2024-02-02T03:58:46.102Z,3.17
2024-02-02T04:01:14.280Z,3.15
2024-02-02T04:03:42.520Z,3.13
2024-02-02T04:06:10.804Z,3.09
2024-02-02T04:08:40.055Z,3.08
2024-02-02T04:11:09.761Z,3.06
2024-02-02T04:13:38.023Z,3.05
2024-02-02T04:16:06.684Z,3.03
2024-02-02T04:18:35.047Z,3.02
2024-02-02T04:21:03.701Z,3.03
2024-02-02T04:23:32.050Z,3.03
2024-02-02T04:26:00.199Z,3.05
2024-02-02T04:28:28.370Z,3.06
2024-02-02T04:30:56.511Z,3.06
2024-02-02T04:33:25.147Z,3.06
2024-02-02T04:35:53.369Z,3.03
2024-02-02T04:38:21.779Z,3.08
2024-02-02T04:40:49.937Z,3.09
2024-02-02T04:43:18.163Z,3.10
2024-02-02T04:45:46.311Z,3.10
2024-02-02T04:48:15.610Z,3.12
2024-02-02T04:50:44.010Z,3.13
2024-02-02T04:53:14.342Z,3.14
2024-02-02T04:55:42.776Z,3.13
2024-02-02T04:58:10.873Z,3.12
2024-02-02T05:00:39.475Z,3.11
2024-02-02T05:03:07.819Z,3.09
2024-02-02T05:05:36.238Z,3.08
2024-02-02T05:08:05.260Z,3.06
2024-02-02T05:10:33.637Z,3.05
2024-02-02T05:13:02.118Z,3.03
2024-02-02T05:15:30.468Z,3.03
2024-02-02T05:17:58.700Z,3.03
2024-02-02T05:20:26.998Z,3.03
2024-02-02T05:22:55.154Z,3.03
2024-02-02T05:25:23.988Z,3.03
2024-02-02T05:27:52.158Z,3.03
2024-02-02T05:30:21.915Z,3.04
2024-02-02T05:32:50.158Z,3.05
2024-02-02T05:35:18.493Z,3.06
2024-02-02T05:37:46.622Z,3.05
2024-02-02T05:40:14.889Z,3.04
2024-02-02T05:42:45.169Z,3.04
2024-02-02T05:45:13.824Z,3.02
2024-02-02T05:47:42.068Z,3.00
2024-02-02T05:50:10.568Z,3.00
2024-02-02T05:52:38.677Z,2.99
2024-02-02T05:55:07.098Z,2.99
2024-02-02T05:57:35.333Z,2.98
2024-02-02T06:00:04.972Z,2.97
2024-02-02T06:02:33.665Z,2.96
2024-02-02T06:05:02.030Z,2.94
2024-02-02T06:07:30.494Z,2.91
2024-02-02T06:09:58.626Z,2.88
2024-02-02T06:12:26.795Z,2.85
2024-02-02T06:14:54.947Z,2.81
2024-02-02T06:17:23.094Z,2.77
2024-02-02T06:19:51.380Z,2.73
2024-02-02T06:22:22.466Z,2.68
2024-02-02T06:24:50.934Z,2.63
2024-02-02T06:27:23.710Z,2.59
2024-02-02T06:29:52.193Z,2.49
2024-02-02T06:32:23.480Z,2.50
2024-02-02T06:34:57.224Z,2.47
2024-02-02T06:37:26.427Z,2.45
2024-02-02T06:39:56.205Z,2.43
2024-02-02T06:42:26.248Z,2.42
2024-02-02T06:44:56.629Z,2.40
2024-02-02T06:47:25.218Z,2.40
2024-02-02T06:49:53.494Z,2.40
2024-02-02T06:52:22.995Z,2.40
2024-02-02T06:54:51.582Z,2.39
2024-02-02T06:57:32.853Z,2.38
2024-02-02T07:00:01.693Z,2.38
2024-02-02T07:02:32.093Z,2.30
2024-02-02T07:05:00.980Z,2.33
2024-02-02T07:07:29.373Z,2.28
2024-02-02T07:09:57.666Z,2.26
2024-02-02T07:12:51.005Z,2.17
2024-02-02T07:15:21.131Z,2.22
2024-02-02T07:17:50.450Z,2.23
2024-02-02T07:20:24.838Z,2.20
2024-02-02T07:22:59.419Z,2.29
2024-02-02T07:25:29.127Z,2.33
2024-02-02T07:27:57.643Z,2.35
2024-02-02T07:30:32.347Z,2.38
2024-02-02T07:33:01.239Z,2.41
2024-02-02T07:35:33.889Z,2.45
2024-02-02T07:38:05.276Z,2.50
2024-02-02T07:40:56.702Z,2.53
2024-02-02T07:43:25.131Z,2.56
2024-02-02T07:45:53.310Z,2.58
2024-02-02T07:48:21.497Z,2.60
2024-02-02T07:50:49.712Z,2.60
2024-02-02T07:53:18.241Z,2.62
2024-02-02T07:55:46.512Z,2.65
2024-02-02T07:58:14.739Z,2.65
2024-02-02T08:00:43.627Z,2.62
2024-02-02T08:03:13.728Z,2.61
2024-02-02T08:05:42.385Z,2.60
2024-02-02T08:08:11.155Z,2.55
2024-02-02T08:10:44.185Z,2.61
2024-02-02T08:13:14.047Z,2.61
2024-02-02T08:15:42.762Z,2.64
2024-02-02T08:18:12.182Z,2.67
2024-02-02T08:20:40.611Z,2.64
2024-02-02T08:23:08.792Z,2.73
2024-02-02T08:25:37.001Z,2.76
2024-02-02T08:28:05.570Z,2.79
2024-02-02T08:30:33.926Z,2.82
2024-02-02T08:33:02.315Z,2.85
2024-02-02T08:35:30.992Z,2.88
2024-02-02T08:38:01.937Z,2.91
2024-02-02T08:40:46.601Z,2.95
2024-02-02T08:43:24.040Z,2.99
2024-02-02T08:46:04.896Z,3.00
2024-02-02T08:48:34.480Z,3.03
2024-02-02T08:51:03.454Z,2.98
2024-02-02T08:53:32.382Z,3.04
2024-02-02T08:56:02.387Z,3.04
2024-02-02T08:58:36.257Z,3.05
2024-02-02T09:01:05.861Z,3.05
2024-02-02T09:03:42.081Z,3.06
2024-02-02T09:06:22.783Z,3.08
2024-02-02T09:08:50.935Z,3.10
2024-02-02T09:11:21.897Z,3.14
2024-02-02T09:14:02.030Z,3.17
2024-02-02T09:16:41.595Z,3.20
2024-02-02T09:19:24.294Z,3.24
2024-02-02T09:21:53.852Z,3.25
2024-02-02T09:24:49.060Z,3.26
2024-02-02T09:27:31.282Z,3.29
2024-02-02T09:30:00.594Z,3.33
2024-02-02T09:32:30.133Z,3.35
2024-02-02T09:35:02.181Z,3.38
2024-02-02T09:37:44.270Z,3.40
2024-02-02T09:40:57.609Z,3.44
2024-02-02T09:43:55.104Z,3.47
2024-02-02T09:46:45.135Z,3.49
2024-02-02T09:49:37.293Z,3.53
2024-02-02T09:52:46.981Z,3.58
2024-02-02T09:55:18.125Z,3.65
2024-02-02T09:57:51.025Z,3.71
2024-02-02T10:00:31.104Z,3.78
2024-02-02T10:03:35.644Z,3.83
2024-02-02T10:06:19.397Z,3.89
2024-02-02T10:09:02.373Z,3.95
2024-02-02T10:11:50.882Z,4.02
2024-02-02T10:14:21.843Z,4.06
2024-02-02T10:16:58.433Z,4.11
2024-02-02T10:19:48.824Z,4.16
2024-02-02T10:22:40.099Z,4.24
2024-02-02T10:25:14.140Z,4.29
2024-02-02T10:28:08.685Z,4.35
2024-02-02T10:30:55.534Z,4.41
2024-02-02T10:33:39.283Z,4.46
2024-02-02T10:36:16.500Z,4.51
2024-02-02T10:38:55.029Z,4.55
2024-02-02T10:41:35.366Z,4.59
2024-02-02T10:44:15.466Z,4.63
2024-02-02T10:46:52.260Z,4.68
2024-02-02T10:49:36.500Z,4.73
2024-02-02T10:52:21.767Z,4.73
2024-02-02T10:55:05.371Z,4.81
2024-02-02T10:57:51.118Z,4.84
2024-02-02T11:00:25.304Z,4.80
2024-02-02T11:03:00.085Z,4.84
2024-02-02T11:05:40.981Z,4.85
2024-02-02T11:08:17.479Z,4.86
2024-02-02T11:10:55.685Z,4.86
2024-02-02T11:14:06.352Z,4.84
2024-02-02T11:17:14.111Z,4.83
2024-02-02T11:20:02.743Z,4.81
2024-02-02T11:22:58.409Z,4.81
2024-02-02T11:25:55.165Z,4.80
2024-02-02T11:28:35.169Z,4.79
2024-02-02T11:31:28.576Z,4.78
2024-02-02T11:34:08.016Z,4.77
2024-02-02T11:37:03.579Z,4.76
2024-02-02T11:40:01.430Z,4.76
2024-02-02T11:42:31.682Z,4.75
2024-02-02T11:45:01.962Z,4.71
2024-02-02T11:47:34.076Z,4.78
2024-02-02T11:50:07.857Z,4.81
2024-02-02T11:52:43.424Z,4.82
2024-02-02T11:55:24.289Z,4.82
2024-02-02T11:57:56.817Z,4.82
2024-02-02T12:00:40.364Z,4.84
2024-02-02T12:03:15.450Z,4.86
2024-02-02T12:05:57.383Z,4.88
2024-02-02T12:09:13.443Z,4.88
2024-02-02T12:11:47.459Z,4.87
2024-02-02T12:14:34.004Z,4.87
2024-02-02T12:17:02.276Z,4.87
2024-02-02T12:19:31.698Z,4.87
2024-02-02T12:22:00.138Z,4.85
2024-02-02T12:24:30.011Z,4.86
2024-02-02T12:26:59.460Z,4.85
2024-02-02T12:29:27.864Z,4.86
2024-02-02T12:31:56.128Z,4.87
2024-02-02T12:34:25.724Z,4.89
2024-02-02T12:36:54.036Z,4.86
2024-02-02T12:39:22.861Z,4.90
2024-02-02T12:41:52.358Z,4.91
2024-02-02T12:44:20.553Z,4.92
2024-02-02T12:46:49.016Z,4.92
2024-02-02T12:49:17.575Z,4.92
2024-02-02T12:51:46.157Z,4.93
2024-02-02T12:54:14.942Z,4.93
2024-02-02T12:56:43.803Z,4.93
2024-02-02T12:59:14.313Z,4.91
2024-02-02T13:01:43.069Z,4.86
2024-02-02T13:04:14.064Z,4.89
2024-02-02T13:06:43.661Z,4.86
2024-02-02T13:09:19.379Z,4.82
2024-02-02T13:11:48.372Z,4.74
2024-02-02T13:14:40.619Z,4.75
2024-02-02T13:17:16.282Z,4.71
2024-02-02T13:19:47.543Z,4.68
2024-02-02T13:22:32.793Z,4.63
2024-02-02T13:25:03.488Z,4.58
2024-02-02T13:27:32.479Z,4.53
2024-02-02T13:30:03.839Z,4.44
2024-02-02T13:32:34.900Z,4.44
2024-02-02T13:35:09.546Z,4.42
2024-02-02T13:37:44.513Z,4.37
2024-02-02T13:40:14.439Z,4.34
2024-02-02T13:42:43.326Z,4.33
2024-02-02T13:45:18.626Z,4.31
2024-02-02T13:48:01.727Z,4.30
2024-02-02T13:50:39.452Z,4.28
2024-02-02T13:53:08.118Z,4.25
2024-02-02T13:55:36.860Z,4.21
2024-02-02T13:58:06.627Z,4.18
2024-02-02T14:00:35.033Z,4.15
2024-02-02T14:03:11.436Z,4.13
2024-02-02T14:05:41.264Z,4.06
2024-02-02T14:08:09.883Z,4.09
2024-02-02T14:10:49.432Z,4.09
2024-02-02T14:13:23.127Z,4.09
2024-02-02T14:15:53.722Z,4.08
2024-02-02T14:18:22.480Z,4.07
2024-02-02T14:20:50.731Z,4.03
2024-02-02T14:23:18.874Z,4.05
2024-02-02T14:25:47.051Z,4.05
2024-02-02T14:28:19.012Z,4.05
2024-02-02T14:30:48.175Z,4.04
2024-02-02T14:33:25.415Z,4.04
2024-02-02T14:35:55.229Z,4.03
2024-02-02T14:38:23.529Z,4.02
2024-02-02T14:40:54.297Z,4.00
2024-02-02T14:43:22.695Z,3.99
2024-02-02T14:45:51.051Z,3.97
2024-02-02T14:48:20.757Z,3.97
2024-02-02T14:50:49.257Z,3.95
2024-02-02T14:53:17.470Z,3.94
2024-02-02T14:55:45.802Z,3.87
2024-02-02T14:58:14.883Z,3.92
2024-02-02T15:00:46.434Z,3.91
2024-02-02T15:03:15.368Z,3.89
2024-02-02T15:05:44.052Z,3.88
2024-02-02T15:08:12.868Z,3.86
2024-02-02T15:10:42.419Z,3.84
2024-02-02T15:13:11.894Z,3.82
2024-02-02T15:15:41.322Z,3.80
2024-02-02T15:18:09.755Z,3.77
2024-02-02T15:20:38.173Z,3.76
2024-02-02T15:23:06.539Z,3.75
2024-02-02T15:25:34.864Z,3.73
2024-02-02T15:28:03.309Z,3.70
2024-02-02T15:30:31.977Z,3.66
2024-02-02T15:33:00.198Z,3.63
2024-02-02T15:35:28.465Z,3.61
2024-02-02T15:37:56.544Z,3.59
2024-02-02T15:40:24.735Z,3.56
2024-02-02T15:42:52.998Z,3.53
2024-02-02T15:45:21.299Z,3.47
2024-02-02T15:47:52.021Z,3.50
2024-02-02T15:50:21.058Z,3.48
2024-02-02T15:52:49.402Z,3.47
2024-02-02T15:55:18.446Z,3.39
2024-02-02T15:57:52.138Z,3.41
2024-02-02T16:00:21.143Z,3.40
2024-02-02T16:02:49.959Z,3.39
2024-02-02T16:05:18.746Z,3.37
2024-02-02T16:07:47.141Z,3.35
2024-02-02T16:10:17.179Z,3.32
2024-02-02T16:12:45.447Z,3.31
2024-02-02T16:15:14.179Z,3.30
2024-02-02T16:17:42.911Z,3.29
2024-02-02T16:20:12.556Z,3.28
2024-02-02T16:22:45.161Z,3.27
2024-02-02T16:25:16.259Z,3.26
2024-02-02T16:27:44.569Z,3.24
2024-02-02T16:30:14.035Z,3.24
2024-02-02T16:32:42.193Z,3.24
2024-02-02T16:35:10.414Z,3.20
2024-02-02T16:37:40.731Z,3.23
2024-02-02T16:40:10.434Z,3.23
2024-02-02T16:42:44.273Z,3.22
2024-02-02T16:45:13.396Z,3.22
2024-02-02T16:47:41.651Z,3.17
2024-02-02T16:50:10.427Z,3.21
2024-02-02T16:52:38.666Z,3.21
2024-02-02T16:55:06.943Z,3.20
2024-02-02T16:57:35.572Z,3.18
2024-02-02T17:00:05.836Z,3.18
2024-02-02T17:02:36.235Z,3.18
2024-02-02T17:05:05.639Z,3.17
2024-02-02T17:07:34.021Z,3.16
2024-02-02T17:10:02.264Z,3.15
2024-02-02T17:12:30.574Z,3.14
2024-02-02T17:14:58.960Z,3.13
2024-02-02T17:17:27.274Z,3.13
2024-02-02T17:19:55.709Z,3.13
2024-02-02T17:22:23.908Z,3.13
2024-02-02T17:24:52.118Z,3.13
2024-02-02T17:27:20.439Z,3.13
2024-02-02T17:29:48.652Z,3.13
2024-02-02T17:32:17.821Z,3.13
2024-02-02T17:34:49.670Z,3.13
2024-02-02T17:37:18.121Z,3.13
2024-02-02T17:39:46.775Z,3.13
2024-02-02T17:42:15.161Z,3.13
2024-02-02T17:44:43.348Z,3.15
2024-02-02T17:47:11.921Z,3.15
2024-02-02T17:49:45.724Z,3.16
2024-02-02T17:52:17.619Z,3.16
2024-02-02T17:54:46.440Z,3.14
2024-02-02T17:57:14.877Z,3.18
2024-02-02T17:59:43.099Z,3.20
2024-02-02T18:02:11.999Z,3.20
2024-02-02T18:04:40.327Z,3.21
2024-02-02T18:07:10.687Z,3.17
2024-02-02T18:09:41.395Z,3.21
2024-02-02T18:12:13.479Z,3.22
2024-02-02T18:14:42.434Z,3.23
2024-02-02T18:17:15.634Z,3.23
2024-02-02T18:19:44.569Z,3.23
2024-02-02T18:22:12.907Z,3.23
2024-02-02T18:24:41.273Z,3.23
2024-02-02T18:27:09.498Z,3.24
2024-02-02T18:29:37.834Z,3.24
2024-02-02T18:32:06.228Z,3.25
2024-02-02T18:34:35.003Z,3.26
2024-02-02T18:37:03.366Z,3.27
2024-02-02T18:39:31.668Z,3.28
2024-02-02T18:42:05.382Z,3.29
2024-02-02T18:44:36.863Z,3.31
2024-02-02T18:47:05.417Z,3.32
2024-02-02T18:49:33.669Z,3.34
2024-02-02T18:52:01.927Z,3.37
2024-02-02T18:54:30.126Z,3.39
2024-02-02T18:56:58.296Z,3.41
2024-02-02T18:59:26.451Z,3.42
2024-02-02T19:01:56.560Z,3.43
2024-02-02T19:04:24.846Z,3.44
2024-02-02T19:06:53.180Z,3.46
2024-02-02T19:09:23.093Z,3.48
2024-02-02T19:11:51.272Z,3.49
2024-02-02T19:14:21.633Z,3.50
2024-02-02T19:16:50.186Z,3.52
2024-02-02T19:19:20.306Z,3.53
2024-02-02T19:21:48.882Z,3.54
2024-02-02T19:24:17.085Z,3.51
2024-02-02T19:26:45.260Z,3.57
2024-02-02T19:29:13.523Z,3.58
2024-02-02T19:31:41.988Z,3.54
2024-02-02T19:34:10.298Z,3.60
2024-02-02T19:36:38.576Z,3.61
2024-02-02T19:39:09.352Z,3.63
2024-02-02T19:41:37.791Z,3.59
2024-02-02T19:44:06.078Z,3.64
2024-02-02T19:46:35.204Z,3.66
2024-02-02T19:49:04.421Z,3.67
2024-02-02T19:51:33.336Z,3.67
2024-02-02T19:54:01.668Z,3.67
2024-02-02T19:56:29.880Z,3.67
2024-02-02T19:58:58.355Z,3.67
2024-02-02T20:01:27.192Z,3.68
2024-02-02T20:03:55.882Z,3.68
2024-02-02T20:06:24.346Z,3.69
2024-02-02T20:08:52.617Z,3.71
2024-02-02T20:11:22.356Z,3.71
2024-02-02T20:13:50.542Z,3.67
2024-02-02T20:16:20.770Z,3.72
2024-02-02T20:18:50.505Z,3.74
2024-02-02T20:21:20.637Z,3.75
2024-02-02T20:23:52.869Z,3.76
2024-02-02T20:26:21.629Z,3.73
2024-02-02T20:28:54.080Z,3.79
2024-02-02T20:31:22.479Z,3.80
2024-02-02T20:33:52.881Z,3.81
2024-02-02T20:36:24.154Z,3.83
2024-02-02T20:38:53.151Z,3.84
2024-02-02T20:41:26.614Z,3.86
2024-02-02T20:43:56.948Z,3.88
2024-02-02T20:46:25.678Z,3.89
2024-02-02T20:48:54.086Z,3.91
2024-02-02T20:51:22.679Z,3.94
2024-02-02T20:53:51.233Z,3.97
2024-02-02T20:56:19.828Z,3.99
2024-02-02T20:58:48.209Z,4.02
2024-02-02T21:01:16.675Z,4.04
2024-02-02T21:03:45.518Z,4.06
2024-02-02T21:06:14.406Z,4.08
2024-02-02T21:08:44.650Z,4.10
2024-02-02T21:11:13.207Z,4.13
2024-02-02T21:13:41.590Z,4.16
2024-02-02T21:16:09.806Z,4.19
2024-02-02T21:18:38.322Z,4.23
2024-02-02T21:21:07.494Z,4.26
2024-02-02T21:23:35.798Z,4.29
2024-02-02T21:26:04.108Z,4.32
2024-02-02T21:28:32.322Z,4.35
2024-02-02T21:31:00.699Z,4.38
2024-02-02T21:33:29.147Z,4.36
2024-02-02T21:35:58.518Z,4.43
2024-02-02T21:38:28.222Z,4.41
2024-02-02T21:40:56.562Z,4.48
2024-02-02T21:43:24.705Z,4.48
2024-02-02T21:45:52.871Z,4.54
2024-02-02T21:48:21.188Z,4.56
2024-02-02T21:50:49.454Z,4.59
2024-02-02T21:53:18.577Z,4.61
2024-02-02T21:55:46.984Z,4.63
2024-02-02T21:58:16.116Z,4.65
2024-02-02T22:00:44.596Z,4.67
2024-02-02T22:03:12.906Z,4.69
2024-02-02T22:05:41.409Z,4.71
2024-02-02T22:08:12.119Z,4.73
2024-02-02T22:10:40.285Z,4.75
2024-02-02T22:13:10.475Z,4.77
2024-02-02T22:15:39.163Z,4.79
2024-02-02T22:18:07.921Z,4.81
2024-02-02T22:20:36.151Z,4.83
2024-02-02T22:23:04.503Z,4.85
2024-02-02T22:25:32.993Z,4.88
2024-02-02T22:28:01.186Z,4.90
2024-02-02T22:30:29.419Z,4.87
2024-02-02T22:32:58.512Z,4.94
2024-02-02T22:35:26.885Z,4.83
2024-02-02T22:37:54.991Z,4.99
2024-02-02T22:40:23.097Z,4.97
2024-02-02T22:42:51.415Z,5.03
2024-02-02T22:45:19.602Z,5.07
2024-02-02T22:47:47.793Z,5.11
2024-02-02T22:50:16.172Z,5.14
2024-02-02T22:52:44.909Z,5.17
2024-02-02T22:55:13.104Z,5.20
2024-02-02T22:57:41.518Z,5.24
2024-02-02T23:00:11.452Z,5.27
2024-02-02T23:02:39.603Z,5.30
2024-02-02T23:05:09.471Z,5.32
2024-02-02T23:07:37.679Z,5.34
2024-02-02T23:10:06.107Z,5.37
2024-02-02T23:12:34.300Z,5.40
2024-02-02T23:15:02.655Z,5.43
2024-02-02T23:17:30.781Z,5.47
2024-02-02T23:19:59.012Z,5.51
2024-02-02T23:22:27.244Z,5.56
2024-02-02T23:24:55.929Z,5.60
2024-02-02T23:27:24.162Z,5.64
2024-02-02T23:29:52.265Z,5.68
2024-02-02T23:32:20.468Z,5.72
2024-02-02T23:34:48.811Z,5.72
2024-02-02T23:37:17.873Z,5.81
2024-02-02T23:39:46.242Z,5.85
2024-02-02T23:42:14.613Z,5.86
2024-02-02T23:44:43.639Z,5.95
2024-02-02T23:47:13.162Z,5.95
2024-02-02T23:49:42.590Z,6.04
2024-02-02T23:52:11.396Z,6.08
2024-02-02T23:54:39.679Z,6.11
2024-02-02T23:57:07.883Z,6.14
2024-02-02T23:59:35.990Z,6.18
